Insider Stock Trading History of Callen Craig R


The following table details the trading activities (stock purchases, stock sales, and stock option exercises) reported to the Securities and Exchange Commission (SEC) by insider Callen Craig R since year 2005. The trader's CIK number is 1224316. At the time of this reporting, Callen Craig R is the Director of Omega Healthcare Investors Inc . (stock ticker symbol OHI). See this page for all insider trading activities at Omega Healthcare Investors Inc .

Note that in the past CALLEN CRAIG R also reported insider trading activities as an insider of the following companies:
Stock purchases, sales, and option exercises reported by insider Callen Craig R since 2005.
  Trade Date   Symbol Company Name (Issuer) Trade Type     Shares       Price ($)   Value ($)
2017-11-02 OHI Omega Healthcare Investors Inc Buy 10,000 27.38 273,800
2017-06-02 OHI Omega Healthcare Investors Inc Buy 15,000 31.40 471,045
2015-08-11 HMSY Hms Holdings Corp Buy 12,000 8.75 104,975
2014-05-15 HMSY Hms Holdings Corp Buy 3,000 17.39 52,170
2013-05-29 OHI Omega Healthcare Investors Inc Buy 1,000 32.31 32,308
2013-05-23 OHI Omega Healthcare Investors Inc Buy 2,000 34.69 69,370
2011-08-24 KCI Kinetic Concepts Inc /tx/ Option Ex 53 .00 0
2007-10-10 AET Aetna Inc /pa/ Option Ex 100,000 33.38 3,337,500
2007-10-10 AET Aetna Inc /pa/ Sale 100,000 55.00 5,500,000
2007-10-08 AET Aetna Inc /pa/ Option Ex 50,000 27.66 1,382,800
2007-10-08 AET Aetna Inc /pa/ Sale 50,000 54.07 2,703,450
2007-10-01 AET Aetna Inc /pa/ Option Ex 50,000 21.94 1,096,850
2007-10-01 AET Aetna Inc /pa/ Sale 24,100 54.54 1,314,438
2007-10-01 AET Aetna Inc /pa/ Sale 25,900 54.84 1,420,304
2007-09-24 AET Aetna Inc /pa/ Option Ex 50,000 21.94 1,096,850
2007-09-24 AET Aetna Inc /pa/ Sale 50,000 52.83 2,641,500
2007-09-17 AET Aetna Inc /pa/ Option Ex 50,000 21.94 1,096,850
2007-09-17 AET Aetna Inc /pa/ Sale 50,000 51.57 2,578,350
2007-09-10 AET Aetna Inc /pa/ Sale 50,000 50.37 2,518,500
2007-09-10 AET Aetna Inc /pa/ Option Ex 50,000 21.94 1,096,850
2006-09-01 AET Aetna Inc /pa/ Buy 3,000 36.80 110,399
2006-08-30 AET Aetna Inc /pa/ Buy 26,300 38.05 1,000,767
2006-02-27 AET Aetna Inc /pa/ Option Ex 20,000 21.94 438,740
2006-02-27 AET Aetna Inc /pa/ Sale 20,000 52.21 1,044,200
2006-02-21 AET Aetna Inc /pa/ Option Ex 20,000 20.69 413,740
2006-02-21 AET Aetna Inc /pa/ Sale 20,000 50.14 1,002,860
2006-02-16 AET Aetna Inc /pa/ Option Ex 10,000 41.38 413,750
2006-02-16 AET Aetna Inc /pa/ Sale 10,000 101.27 1,012,680

Insider trading activities including stock purchases, stock sales, and option exercises listed in the above table cannot be completely guaranteed as to their accuracy. For more information regarding the trades made by Callen Craig R (Director of Omega Healthcare Investors Inc at the time of this reporting) see the Securities and Exchange Commission (SEC) website.